sensor_id;sensor_type;location;lat;lon;timestamp;P1;durP1;ratioP1;P2;durP2;ratioP2
51495;SDS011;37572;52.094;4.870;2022-07-17T00:01:46;5.82;;;4.25;;
51495;SDS011;37572;52.094;4.870;2022-07-17T00:04:12;8.77;;;4.72;;
51495;SDS011;37572;52.094;4.870;2022-07-17T00:06:38;3.28;;;2.97;;
51495;SDS011;37572;52.094;4.870;2022-07-17T00:09:03;6.20;;;3.80;;
51495;SDS011;37572;52.094;4.870;2022-07-17T00:11:28;6.03;;;3.90;;
51495;SDS011;37572;52.094;4.870;2022-07-17T00:13:54;5.25;;;3.58;;
51495;SDS011;37572;52.094;4.870;2022-07-17T00:16:21;4.35;;;3.85;;
51495;SDS011;37572;52.094;4.870;2022-07-17T00:18:46;9.00;;;4.55;;
51495;SDS011;37572;52.094;4.870;2022-07-17T00:21:11;8.57;;;4.72;;
51495;SDS011;37572;52.094;4.870;2022-07-17T00:23:37;10.93;;;5.40;;
51495;SDS011;37572;52.094;4.870;2022-07-17T00:26:02;6.53;;;4.65;;
51495;SDS011;37572;52.094;4.870;2022-07-17T00:28:27;6.22;;;4.15;;
51495;SDS011;37572;52.094;4.870;2022-07-17T00:30:53;8.10;;;4.90;;
51495;SDS011;37572;52.094;4.870;2022-07-17T00:33:18;10.82;;;4.78;;
51495;SDS011;37572;52.094;4.870;2022-07-17T00:35:43;7.50;;;4.03;;
51495;SDS011;37572;52.094;4.870;2022-07-17T00:38:09;12.70;;;4.80;;
51495;SDS011;37572;52.094;4.870;2022-07-17T00:40:35;5.90;;;4.28;;
51495;SDS011;37572;52.094;4.870;2022-07-17T00:43:00;7.45;;;4.70;;
51495;SDS011;37572;52.094;4.870;2022-07-17T00:45:25;5.32;;;4.32;;
51495;SDS011;37572;52.094;4.870;2022-07-17T00:47:55;7.25;;;4.50;;
51495;SDS011;37572;52.094;4.870;2022-07-17T00:50:32;3.40;;;3.10;;
51495;SDS011;37572;52.094;4.870;2022-07-17T00:52:59;4.03;;;2.80;;
51495;SDS011;37572;52.094;4.870;2022-07-17T00:55:25;5.65;;;4.70;;
51495;SDS011;37572;52.094;4.870;2022-07-17T00:57:52;8.45;;;4.60;;
51495;SDS011;37572;52.094;4.870;2022-07-17T01:00:19;8.38;;;4.82;;
51495;SDS011;37572;52.094;4.870;2022-07-17T01:02:49;13.38;;;5.07;;
51495;SDS011;37572;52.094;4.870;2022-07-17T01:05:16;9.15;;;5.10;;
51495;SDS011;37572;52.094;4.870;2022-07-17T01:07:43;11.60;;;5.70;;
51495;SDS011;37572;52.094;4.870;2022-07-17T01:10:09;9.00;;;5.60;;
51495;SDS011;37572;52.094;4.870;2022-07-17T01:12:36;8.05;;;5.30;;
51495;SDS011;37572;52.094;4.870;2022-07-17T01:15:02;12.30;;;6.28;;
51495;SDS011;37572;52.094;4.870;2022-07-17T01:17:29;15.43;;;5.60;;
51495;SDS011;37572;52.094;4.870;2022-07-17T01:19:55;9.65;;;5.68;;
51495;SDS011;37572;52.094;4.870;2022-07-17T01:22:21;11.43;;;7.22;;
51495;SDS011;37572;52.094;4.870;2022-07-17T01:24:46;8.80;;;6.32;;
51495;SDS011;37572;52.094;4.870;2022-07-17T01:27:12;10.02;;;6.45;;
51495;SDS011;37572;52.094;4.870;2022-07-17T01:29:37;8.68;;;6.20;;
51495;SDS011;37572;52.094;4.870;2022-07-17T01:32:04;11.40;;;6.88;;
51495;SDS011;37572;52.094;4.870;2022-07-17T01:34:31;11.07;;;6.45;;
51495;SDS011;37572;52.094;4.870;2022-07-17T01:36:57;8.27;;;5.85;;
51495;SDS011;37572;52.094;4.870;2022-07-17T01:39:22;10.18;;;5.75;;
51495;SDS011;37572;52.094;4.870;2022-07-17T01:42:08;10.55;;;5.70;;
51495;SDS011;37572;52.094;4.870;2022-07-17T01:44:34;11.82;;;5.90;;
51495;SDS011;37572;52.094;4.870;2022-07-17T01:47:00;7.82;;;6.00;;
51495;SDS011;37572;52.094;4.870;2022-07-17T01:49:25;9.70;;;6.55;;
51495;SDS011;37572;52.094;4.870;2022-07-17T01:51:50;8.15;;;6.10;;
51495;SDS011;37572;52.094;4.870;2022-07-17T01:54:16;8.63;;;5.75;;
51495;SDS011;37572;52.094;4.870;2022-07-17T01:56:41;12.43;;;5.43;;
51495;SDS011;37572;52.094;4.870;2022-07-17T01:59:06;10.88;;;5.28;;
51495;SDS011;37572;52.094;4.870;2022-07-17T02:01:32;9.27;;;5.30;;
51495;SDS011;37572;52.094;4.870;2022-07-17T02:03:58;7.93;;;5.50;;
51495;SDS011;37572;52.094;4.870;2022-07-17T02:06:23;8.23;;;4.97;;
51495;SDS011;37572;52.094;4.870;2022-07-17T02:08:48;5.80;;;5.00;;
51495;SDS011;37572;52.094;4.870;2022-07-17T02:11:16;8.50;;;5.30;;
51495;SDS011;37572;52.094;4.870;2022-07-17T02:13:44;6.05;;;3.50;;
51495;SDS011;37572;52.094;4.870;2022-07-17T02:16:09;6.25;;;3.60;;
51495;SDS011;37572;52.094;4.870;2022-07-17T02:18:35;8.18;;;4.20;;
51495;SDS011;37572;52.094;4.870;2022-07-17T02:21:00;5.63;;;4.88;;
51495;SDS011;37572;52.094;4.870;2022-07-17T02:23:26;5.45;;;3.25;;
51495;SDS011;37572;52.094;4.870;2022-07-17T02:25:53;5.88;;;4.93;;
51495;SDS011;37572;52.094;4.870;2022-07-17T02:28:18;6.28;;;5.20;;
51495;SDS011;37572;52.094;4.870;2022-07-17T02:30:44;8.88;;;4.95;;
51495;SDS011;37572;52.094;4.870;2022-07-17T02:33:10;5.72;;;4.43;;
51495;SDS011;37572;52.094;4.870;2022-07-17T02:35:36;8.77;;;4.35;;
51495;SDS011;37572;52.094;4.870;2022-07-17T02:38:01;7.05;;;4.40;;
51495;SDS011;37572;52.094;4.870;2022-07-17T02:40:26;10.70;;;4.25;;
51495;SDS011;37572;52.094;4.870;2022-07-17T02:42:52;5.10;;;4.10;;
51495;SDS011;37572;52.094;4.870;2022-07-17T02:45:17;7.05;;;4.22;;
51495;SDS011;37572;52.094;4.870;2022-07-17T02:47:46;7.45;;;3.70;;
51495;SDS011;37572;52.094;4.870;2022-07-17T02:50:12;9.20;;;4.30;;
51495;SDS011;37572;52.094;4.870;2022-07-17T02:52:37;3.08;;;2.30;;
51495;SDS011;37572;52.094;4.870;2022-07-17T02:55:03;3.75;;;2.40;;
51495;SDS011;37572;52.094;4.870;2022-07-17T02:57:28;3.95;;;2.55;;
51495;SDS011;37572;52.094;4.870;2022-07-17T02:59:54;4.35;;;2.58;;
51495;SDS011;37572;52.094;4.870;2022-07-17T03:02:19;5.75;;;1.88;;
51495;SDS011;37572;52.094;4.870;2022-07-17T03:04:44;3.03;;;2.20;;
51495;SDS011;37572;52.094;4.870;2022-07-17T03:07:09;3.55;;;1.90;;
51495;SDS011;37572;52.094;4.870;2022-07-17T03:09:35;1.40;;;1.33;;
51495;SDS011;37572;52.094;4.870;2022-07-17T03:12:01;0.80;;;0.80;;
51495;SDS011;37572;52.094;4.870;2022-07-17T03:14:26;1.83;;;1.05;;
51495;SDS011;37572;52.094;4.870;2022-07-17T03:16:52;1.60;;;1.20;;
51495;SDS011;37572;52.094;4.870;2022-07-17T03:19:17;1.33;;;1.20;;
51495;SDS011;37572;52.094;4.870;2022-07-17T03:21:43;2.25;;;1.70;;
51495;SDS011;37572;52.094;4.870;2022-07-17T03:24:09;3.58;;;2.20;;
51495;SDS011;37572;52.094;4.870;2022-07-17T03:26:34;6.13;;;3.25;;
51495;SDS011;37572;52.094;4.870;2022-07-17T03:28:59;8.88;;;4.13;;
51495;SDS011;37572;52.094;4.870;2022-07-17T03:31:25;7.55;;;5.57;;
51495;SDS011;37572;52.094;4.870;2022-07-17T03:33:50;8.48;;;5.75;;
51495;SDS011;37572;52.094;4.870;2022-07-17T03:36:15;7.25;;;5.78;;
51495;SDS011;37572;52.094;4.870;2022-07-17T03:38:41;5.13;;;4.63;;
51495;SDS011;37572;52.094;4.870;2022-07-17T03:41:06;6.85;;;4.60;;
51495;SDS011;37572;52.094;4.870;2022-07-17T03:43:31;7.53;;;4.63;;
51495;SDS011;37572;52.094;4.870;2022-07-17T03:45:56;6.15;;;3.50;;
51495;SDS011;37572;52.094;4.870;2022-07-17T03:48:22;3.25;;;2.67;;
51495;SDS011;37572;52.094;4.870;2022-07-17T03:50:47;4.55;;;2.92;;
51495;SDS011;37572;52.094;4.870;2022-07-17T03:53:12;3.60;;;3.30;;
51495;SDS011;37572;52.094;4.870;2022-07-17T03:55:38;6.32;;;4.65;;
51495;SDS011;37572;52.094;4.870;2022-07-17T03:58:03;7.55;;;3.20;;
51495;SDS011;37572;52.094;4.870;2022-07-17T04:00:28;5.05;;;2.75;;
51495;SDS011;37572;52.094;4.870;2022-07-17T04:02:54;6.18;;;3.53;;
51495;SDS011;37572;52.094;4.870;2022-07-17T04:05:19;4.35;;;2.78;;
51495;SDS011;37572;52.094;4.870;2022-07-17T04:07:45;9.43;;;4.40;;
51495;SDS011;37572;52.094;4.870;2022-07-17T04:10:11;7.75;;;5.63;;
51495;SDS011;37572;52.094;4.870;2022-07-17T04:12:37;7.55;;;5.50;;
51495;SDS011;37572;52.094;4.870;2022-07-17T04:15:04;5.80;;;5.10;;
51495;SDS011;37572;52.094;4.870;2022-07-17T04:17:30;11.65;;;5.57;;
51495;SDS011;37572;52.094;4.870;2022-07-17T04:19:56;6.65;;;4.60;;
51495;SDS011;37572;52.094;4.870;2022-07-17T04:22:22;5.35;;;4.85;;
51495;SDS011;37572;52.094;4.870;2022-07-17T04:24:47;9.10;;;4.72;;
51495;SDS011;37572;52.094;4.870;2022-07-17T04:27:13;8.73;;;4.15;;
51495;SDS011;37572;52.094;4.870;2022-07-17T04:29:39;2.28;;;2.08;;
51495;SDS011;37572;52.094;4.870;2022-07-17T04:32:05;2.05;;;1.90;;
51495;SDS011;37572;52.094;4.870;2022-07-17T04:34:30;2.00;;;1.80;;
51495;SDS011;37572;52.094;4.870;2022-07-17T04:36:57;3.20;;;2.55;;
51495;SDS011;37572;52.094;4.870;2022-07-17T04:39:23;2.35;;;2.15;;
51495;SDS011;37572;52.094;4.870;2022-07-17T04:41:49;3.10;;;2.88;;
51495;SDS011;37572;52.094;4.870;2022-07-17T04:44:14;8.15;;;3.13;;
51495;SDS011;37572;52.094;4.870;2022-07-17T04:46:39;3.60;;;2.38;;
51495;SDS011;37572;52.094;4.870;2022-07-17T04:49:04;2.15;;;1.42;;
51495;SDS011;37572;52.094;4.870;2022-07-17T04:51:30;2.25;;;1.92;;
51495;SDS011;37572;52.094;4.870;2022-07-17T04:53:55;5.70;;;2.80;;
51495;SDS011;37572;52.094;4.870;2022-07-17T04:56:21;7.85;;;3.55;;
51495;SDS011;37572;52.094;4.870;2022-07-17T04:58:46;8.30;;;3.95;;
51495;SDS011;37572;52.094;4.870;2022-07-17T05:01:11;4.57;;;2.75;;
51495;SDS011;37572;52.094;4.870;2022-07-17T05:03:37;8.35;;;2.70;;
51495;SDS011;37572;52.094;4.870;2022-07-17T05:06:03;10.02;;;2.30;;
51495;SDS011;37572;52.094;4.870;2022-07-17T05:08:28;6.13;;;1.70;;
51495;SDS011;37572;52.094;4.870;2022-07-17T05:10:54;6.45;;;1.52;;
51495;SDS011;37572;52.094;4.870;2022-07-17T05:13:19;14.80;;;2.28;;
51495;SDS011;37572;52.094;4.870;2022-07-17T05:15:44;2.75;;;1.50;;
51495;SDS011;37572;52.094;4.870;2022-07-17T05:18:09;10.35;;;1.80;;
51495;SDS011;37572;52.094;4.870;2022-07-17T05:20:35;4.05;;;1.33;;
51495;SDS011;37572;52.094;4.870;2022-07-17T05:23:00;8.45;;;1.45;;
51495;SDS011;37572;52.094;4.870;2022-07-17T05:25:25;8.90;;;1.38;;
51495;SDS011;37572;52.094;4.870;2022-07-17T05:27:51;11.23;;;1.50;;
51495;SDS011;37572;52.094;4.870;2022-07-17T05:30:16;6.32;;;1.70;;
51495;SDS011;37572;52.094;4.870;2022-07-17T05:32:42;6.70;;;1.33;;
51495;SDS011;37572;52.094;4.870;2022-07-17T05:35:07;6.22;;;1.35;;
51495;SDS011;37572;52.094;4.870;2022-07-17T05:37:33;5.40;;;1.30;;
51495;SDS011;37572;52.094;4.870;2022-07-17T05:39:58;8.93;;;2.10;;
51495;SDS011;37572;52.094;4.870;2022-07-17T05:42:24;5.60;;;1.60;;
51495;SDS011;37572;52.094;4.870;2022-07-17T05:44:49;5.22;;;1.30;;
51495;SDS011;37572;52.094;4.870;2022-07-17T05:47:14;11.38;;;2.22;;
51495;SDS011;37572;52.094;4.870;2022-07-17T05:49:40;8.23;;;1.67;;
51495;SDS011;37572;52.094;4.870;2022-07-17T05:52:05;6.55;;;1.60;;
51495;SDS011;37572;52.094;4.870;2022-07-17T05:54:30;12.65;;;2.33;;
51495;SDS011;37572;52.094;4.870;2022-07-17T05:56:57;6.65;;;2.10;;
51495;SDS011;37572;52.094;4.870;2022-07-17T05:59:23;6.70;;;1.52;;
51495;SDS011;37572;52.094;4.870;2022-07-17T06:01:48;8.80;;;1.58;;
51495;SDS011;37572;52.094;4.870;2022-07-17T06:04:13;4.85;;;1.30;;
51495;SDS011;37572;52.094;4.870;2022-07-17T06:06:39;7.05;;;1.95;;
51495;SDS011;37572;52.094;4.870;2022-07-17T06:09:04;6.57;;;1.75;;
51495;SDS011;37572;52.094;4.870;2022-07-17T06:11:29;6.07;;;1.63;;
51495;SDS011;37572;52.094;4.870;2022-07-17T06:13:55;8.95;;;1.77;;
51495;SDS011;37572;52.094;4.870;2022-07-17T06:16:20;6.75;;;1.58;;
51495;SDS011;37572;52.094;4.870;2022-07-17T06:18:45;5.75;;;1.20;;
51495;SDS011;37572;52.094;4.870;2022-07-17T06:21:11;6.28;;;1.95;;
51495;SDS011;37572;52.094;4.870;2022-07-17T06:23:36;8.20;;;1.83;;
51495;SDS011;37572;52.094;4.870;2022-07-17T06:26:01;4.53;;;1.25;;
51495;SDS011;37572;52.094;4.870;2022-07-17T06:28:27;6.35;;;1.70;;
51495;SDS011;37572;52.094;4.870;2022-07-17T06:30:52;4.70;;;1.30;;
51495;SDS011;37572;52.094;4.870;2022-07-17T06:33:17;6.18;;;1.55;;
51495;SDS011;37572;52.094;4.870;2022-07-17T06:35:43;7.05;;;1.63;;
51495;SDS011;37572;52.094;4.870;2022-07-17T06:38:08;7.10;;;1.70;;
51495;SDS011;37572;52.094;4.870;2022-07-17T06:40:35;6.43;;;1.73;;
51495;SDS011;37572;52.094;4.870;2022-07-17T06:43:01;6.78;;;1.52;;
51495;SDS011;37572;52.094;4.870;2022-07-17T06:45:26;4.57;;;1.58;;
51495;SDS011;37572;52.094;4.870;2022-07-17T06:47:51;5.93;;;1.73;;
51495;SDS011;37572;52.094;4.870;2022-07-17T06:50:17;6.05;;;1.40;;
51495;SDS011;37572;52.094;4.870;2022-07-17T06:52:42;8.90;;;1.73;;
51495;SDS011;37572;52.094;4.870;2022-07-17T06:55:07;5.50;;;1.23;;
51495;SDS011;37572;52.094;4.870;2022-07-17T06:57:33;7.53;;;1.80;;
51495;SDS011;37572;52.094;4.870;2022-07-17T06:59:58;3.60;;;1.45;;
51495;SDS011;37572;52.094;4.870;2022-07-17T07:02:23;5.82;;;1.20;;
51495;SDS011;37572;52.094;4.870;2022-07-17T07:04:49;11.57;;;1.92;;
51495;SDS011;37572;52.094;4.870;2022-07-17T07:07:14;3.70;;;1.02;;
51495;SDS011;37572;52.094;4.870;2022-07-17T07:09:39;6.70;;;1.52;;
51495;SDS011;37572;52.094;4.870;2022-07-17T07:12:04;6.18;;;1.70;;
51495;SDS011;37572;52.094;4.870;2022-07-17T07:14:30;3.80;;;1.50;;
51495;SDS011;37572;52.094;4.870;2022-07-17T07:16:55;4.30;;;1.75;;
51495;SDS011;37572;52.094;4.870;2022-07-17T07:19:20;8.07;;;1.83;;
51495;SDS011;37572;52.094;4.870;2022-07-17T07:21:46;3.63;;;1.30;;
51495;SDS011;37572;52.094;4.870;2022-07-17T07:24:11;8.65;;;1.75;;
51495;SDS011;37572;52.094;4.870;2022-07-17T07:26:36;5.55;;;1.65;;
51495;SDS011;37572;52.094;4.870;2022-07-17T07:29:02;4.63;;;1.15;;
51495;SDS011;37572;52.094;4.870;2022-07-17T07:31:27;7.20;;;1.50;;
51495;SDS011;37572;52.094;4.870;2022-07-17T07:33:52;4.03;;;1.40;;
51495;SDS011;37572;52.094;4.870;2022-07-17T07:36:18;10.40;;;1.85;;
51495;SDS011;37572;52.094;4.870;2022-07-17T07:38:43;9.32;;;1.60;;
51495;SDS011;37572;52.094;4.870;2022-07-17T07:41:10;6.57;;;1.95;;
51495;SDS011;37572;52.094;4.870;2022-07-17T07:43:35;6.57;;;1.38;;
51495;SDS011;37572;52.094;4.870;2022-07-17T07:46:02;4.40;;;1.58;;
51495;SDS011;37572;52.094;4.870;2022-07-17T07:48:28;3.70;;;1.17;;
51495;SDS011;37572;52.094;4.870;2022-07-17T07:50:53;4.88;;;1.40;;
51495;SDS011;37572;52.094;4.870;2022-07-17T07:53:19;6.45;;;1.77;;
51495;SDS011;37572;52.094;4.870;2022-07-17T07:55:44;4.38;;;1.40;;
51495;SDS011;37572;52.094;4.870;2022-07-17T07:58:10;3.22;;;0.85;;
51495;SDS011;37572;52.094;4.870;2022-07-17T08:00:38;8.45;;;1.60;;
51495;SDS011;37572;52.094;4.870;2022-07-17T08:03:05;5.45;;;1.27;;
51495;SDS011;37572;52.094;4.870;2022-07-17T08:05:30;6.95;;;1.42;;
51495;SDS011;37572;52.094;4.870;2022-07-17T08:07:56;5.40;;;1.42;;
51495;SDS011;37572;52.094;4.870;2022-07-17T08:10:22;3.25;;;1.13;;
51495;SDS011;37572;52.094;4.870;2022-07-17T08:12:47;5.40;;;1.60;;
51495;SDS011;37572;52.094;4.870;2022-07-17T08:15:14;2.80;;;1.17;;
51495;SDS011;37572;52.094;4.870;2022-07-17T08:17:40;3.78;;;0.98;;
51495;SDS011;37572;52.094;4.870;2022-07-17T08:20:06;6.43;;;1.42;;
51495;SDS011;37572;52.094;4.870;2022-07-17T08:22:32;5.80;;;1.10;;
51495;SDS011;37572;52.094;4.870;2022-07-17T08:24:57;3.05;;;1.33;;
51495;SDS011;37572;52.094;4.870;2022-07-17T08:27:22;4.63;;;1.30;;
51495;SDS011;37572;52.094;4.870;2022-07-17T08:29:48;4.22;;;1.10;;
51495;SDS011;37572;52.094;4.870;2022-07-17T08:32:13;2.97;;;1.17;;
51495;SDS011;37572;52.094;4.870;2022-07-17T08:34:39;4.40;;;1.42;;
51495;SDS011;37572;52.094;4.870;2022-07-17T08:37:04;3.55;;;1.13;;
51495;SDS011;37572;52.094;4.870;2022-07-17T08:39:29;4.22;;;1.20;;
51495;SDS011;37572;52.094;4.870;2022-07-17T08:41:54;5.88;;;1.30;;
51495;SDS011;37572;52.094;4.870;2022-07-17T08:44:20;3.42;;;1.35;;
51495;SDS011;37572;52.094;4.870;2022-07-17T08:46:45;4.75;;;1.40;;
51495;SDS011;37572;52.094;4.870;2022-07-17T08:49:11;3.05;;;1.30;;
51495;SDS011;37572;52.094;4.870;2022-07-17T08:51:38;1.35;;;1.20;;
51495;SDS011;37572;52.094;4.870;2022-07-17T08:54:04;2.67;;;1.00;;
51495;SDS011;37572;52.094;4.870;2022-07-17T08:56:29;3.15;;;1.30;;
51495;SDS011;37572;52.094;4.870;2022-07-17T08:58:55;4.85;;;1.30;;
51495;SDS011;37572;52.094;4.870;2022-07-17T09:01:20;4.25;;;1.17;;
51495;SDS011;37572;52.094;4.870;2022-07-17T09:03:53;3.05;;;1.23;;
51495;SDS011;37572;52.094;4.870;2022-07-17T09:06:19;2.53;;;1.00;;
51495;SDS011;37572;52.094;4.870;2022-07-17T09:08:45;4.45;;;1.27;;
51495;SDS011;37572;52.094;4.870;2022-07-17T09:11:11;5.60;;;1.27;;
51495;SDS011;37572;52.094;4.870;2022-07-17T09:13:36;5.25;;;1.15;;
51495;SDS011;37572;52.094;4.870;2022-07-17T09:16:08;3.05;;;1.15;;
51495;SDS011;37572;52.094;4.870;2022-07-17T09:18:43;3.70;;;1.35;;
51495;SDS011;37572;52.094;4.870;2022-07-17T09:21:15;2.92;;;1.08;;
51495;SDS011;37572;52.094;4.870;2022-07-17T09:23:45;3.72;;;1.40;;
51495;SDS011;37572;52.094;4.870;2022-07-17T09:26:10;4.53;;;1.60;;
51495;SDS011;37572;52.094;4.870;2022-07-17T09:28:45;4.07;;;1.17;;
51495;SDS011;37572;52.094;4.870;2022-07-17T09:31:11;3.80;;;1.50;;
51495;SDS011;37572;52.094;4.870;2022-07-17T09:33:37;3.15;;;1.48;;
51495;SDS011;37572;52.094;4.870;2022-07-17T09:36:09;4.00;;;1.30;;
51495;SDS011;37572;52.094;4.870;2022-07-17T09:38:38;2.72;;;1.00;;
51495;SDS011;37572;52.094;4.870;2022-07-17T09:41:07;4.30;;;1.50;;
51495;SDS011;37572;52.094;4.870;2022-07-17T09:43:41;5.25;;;1.55;;
51495;SDS011;37572;52.094;4.870;2022-07-17T09:46:10;2.05;;;1.00;;
51495;SDS011;37572;52.094;4.870;2022-07-17T09:48:39;2.22;;;1.30;;
51495;SDS011;37572;52.094;4.870;2022-07-17T09:53:33;2.63;;;1.13;;
51495;SDS011;37572;52.094;4.870;2022-07-17T09:56:01;1.95;;;1.10;;
51495;SDS011;37572;52.094;4.870;2022-07-17T09:58:27;4.47;;;1.20;;
51495;SDS011;37572;52.094;4.870;2022-07-17T10:00:56;2.33;;;0.98;;
51495;SDS011;37572;52.094;4.870;2022-07-17T10:03:22;1.88;;;1.10;;
51495;SDS011;37572;52.094;4.870;2022-07-17T10:05:47;3.83;;;1.20;;
51495;SDS011;37572;52.094;4.870;2022-07-17T10:08:13;3.80;;;1.42;;
51495;SDS011;37572;52.094;4.870;2022-07-17T10:10:38;2.55;;;1.25;;
51495;SDS011;37572;52.094;4.870;2022-07-17T10:13:04;4.05;;;1.25;;
51495;SDS011;37572;52.094;4.870;2022-07-17T10:15:30;4.63;;;1.30;;
51495;SDS011;37572;52.094;4.870;2022-07-17T10:18:05;3.60;;;1.08;;
51495;SDS011;37572;52.094;4.870;2022-07-17T10:20:31;2.65;;;1.23;;
51495;SDS011;37572;52.094;4.870;2022-07-17T10:22:57;4.07;;;1.20;;
51495;SDS011;37572;52.094;4.870;2022-07-17T10:25:22;5.05;;;1.30;;
51495;SDS011;37572;52.094;4.870;2022-07-17T10:27:51;3.72;;;1.88;;
51495;SDS011;37572;52.094;4.870;2022-07-17T10:30:19;3.20;;;1.40;;
51495;SDS011;37572;52.094;4.870;2022-07-17T10:32:55;7.32;;;1.88;;
51495;SDS011;37572;52.094;4.870;2022-07-17T10:35:26;4.32;;;1.10;;
51495;SDS011;37572;52.094;4.870;2022-07-17T10:37:52;5.13;;;1.73;;
51495;SDS011;37572;52.094;4.870;2022-07-17T10:40:23;2.78;;;1.38;;
51495;SDS011;37572;52.094;4.870;2022-07-17T10:50:19;2.90;;;1.50;;
51495;SDS011;37572;52.094;4.870;2022-07-17T10:52:56;3.63;;;1.42;;
51495;SDS011;37572;52.094;4.870;2022-07-17T10:55:25;5.80;;;1.50;;
51495;SDS011;37572;52.094;4.870;2022-07-17T10:57:50;3.60;;;1.58;;
51495;SDS011;37572;52.094;4.870;2022-07-17T11:00:16;6.22;;;1.50;;
51495;SDS011;37572;52.094;4.870;2022-07-17T11:02:43;4.10;;;1.40;;
51495;SDS011;37572;52.094;4.870;2022-07-17T11:05:09;3.55;;;1.58;;
51495;SDS011;37572;52.094;4.870;2022-07-17T11:07:36;2.25;;;1.25;;
51495;SDS011;37572;52.094;4.870;2022-07-17T11:10:21;4.47;;;1.40;;
51495;SDS011;37572;52.094;4.870;2022-07-17T11:12:48;2.92;;;1.48;;
51495;SDS011;37572;52.094;4.870;2022-07-17T11:15:14;7.65;;;1.73;;
51495;SDS011;37572;52.094;4.870;2022-07-17T11:17:44;3.22;;;1.80;;
51495;SDS011;37572;52.094;4.870;2022-07-17T11:20:10;3.45;;;1.30;;
51495;SDS011;37572;52.094;4.870;2022-07-17T11:22:35;2.28;;;1.30;;
51495;SDS011;37572;52.094;4.870;2022-07-17T11:25:02;3.38;;;1.40;;
51495;SDS011;37572;52.094;4.870;2022-07-17T11:27:29;4.82;;;1.35;;
51495;SDS011;37572;52.094;4.870;2022-07-17T11:29:56;3.35;;;1.55;;
51495;SDS011;37572;52.094;4.870;2022-07-17T11:32:22;4.18;;;1.40;;
51495;SDS011;37572;52.094;4.870;2022-07-17T11:34:50;2.15;;;1.38;;
51495;SDS011;37572;52.094;4.870;2022-07-17T11:37:15;1.92;;;1.25;;
51495;SDS011;37572;52.094;4.870;2022-07-17T11:39:41;3.10;;;1.23;;
51495;SDS011;37572;52.094;4.870;2022-07-17T11:42:12;2.90;;;1.30;;
51495;SDS011;37572;52.094;4.870;2022-07-17T11:44:39;8.35;;;1.65;;
51495;SDS011;37572;52.094;4.870;2022-07-17T11:47:06;1.88;;;1.30;;
51495;SDS011;37572;52.094;4.870;2022-07-17T11:49:33;1.75;;;1.13;;
51495;SDS011;37572;52.094;4.870;2022-07-17T11:52:10;2.22;;;1.25;;
51495;SDS011;37572;52.094;4.870;2022-07-17T11:54:46;8.68;;;1.65;;
51495;SDS011;37572;52.094;4.870;2022-07-17T11:57:13;6.80;;;1.55;;
51495;SDS011;37572;52.094;4.870;2022-07-17T11:59:39;1.33;;;1.00;;
51495;SDS011;37572;52.094;4.870;2022-07-17T12:02:15;2.08;;;1.35;;
51495;SDS011;37572;52.094;4.870;2022-07-17T12:04:53;2.00;;;1.20;;
51495;SDS011;37572;52.094;4.870;2022-07-17T12:07:18;1.70;;;1.50;;
51495;SDS011;37572;52.094;4.870;2022-07-17T12:09:45;1.85;;;1.63;;
51495;SDS011;37572;52.094;4.870;2022-07-17T12:12:20;1.90;;;1.40;;
51495;SDS011;37572;52.094;4.870;2022-07-17T12:14:59;2.55;;;1.60;;
51495;SDS011;37572;52.094;4.870;2022-07-17T12:17:25;1.80;;;1.48;;
51495;SDS011;37572;52.094;4.870;2022-07-17T12:20:03;2.00;;;1.77;;
51495;SDS011;37572;52.094;4.870;2022-07-17T12:22:29;3.08;;;1.85;;
51495;SDS011;37572;52.094;4.870;2022-07-17T12:24:56;2.00;;;1.80;;
51495;SDS011;37572;52.094;4.870;2022-07-17T12:27:21;2.13;;;1.90;;
51495;SDS011;37572;52.094;4.870;2022-07-17T12:29:48;2.72;;;2.53;;
51495;SDS011;37572;52.094;4.870;2022-07-17T12:32:14;3.97;;;2.20;;
51495;SDS011;37572;52.094;4.870;2022-07-17T12:34:42;3.35;;;1.90;;
51495;SDS011;37572;52.094;4.870;2022-07-17T12:37:12;3.45;;;2.00;;
51495;SDS011;37572;52.094;4.870;2022-07-17T12:39:38;3.00;;;2.45;;
51495;SDS011;37572;52.094;4.870;2022-07-17T12:42:03;6.00;;;2.47;;
51495;SDS011;37572;52.094;4.870;2022-07-17T12:44:29;3.08;;;2.40;;
51495;SDS011;37572;52.094;4.870;2022-07-17T12:46:54;4.60;;;2.63;;
51495;SDS011;37572;52.094;4.870;2022-07-17T12:49:20;11.75;;;2.78;;
51495;SDS011;37572;52.094;4.870;2022-07-17T12:51:46;3.53;;;2.85;;
51495;SDS011;37572;52.094;4.870;2022-07-17T12:54:11;3.40;;;3.08;;
51495;SDS011;37572;52.094;4.870;2022-07-17T12:56:37;4.32;;;3.50;;
51495;SDS011;37572;52.094;4.870;2022-07-17T12:59:02;3.88;;;3.00;;
51495;SDS011;37572;52.094;4.870;2022-07-17T13:01:28;3.58;;;2.88;;
51495;SDS011;37572;52.094;4.870;2022-07-17T13:03:55;3.17;;;2.45;;
51495;SDS011;37572;52.094;4.870;2022-07-17T13:06:20;2.75;;;2.25;;
51495;SDS011;37572;52.094;4.870;2022-07-17T13:08:46;4.68;;;2.72;;
51495;SDS011;37572;52.094;4.870;2022-07-17T13:11:11;11.07;;;3.15;;
51495;SDS011;37572;52.094;4.870;2022-07-17T13:13:37;4.13;;;3.33;;
51495;SDS011;37572;52.094;4.870;2022-07-17T13:16:03;5.75;;;3.30;;
51495;SDS011;37572;52.094;4.870;2022-07-17T13:18:29;3.88;;;3.08;;
51495;SDS011;37572;52.094;4.870;2022-07-17T13:20:54;4.07;;;2.80;;
51495;SDS011;37572;52.094;4.870;2022-07-17T13:23:20;4.40;;;3.03;;
51495;SDS011;37572;52.094;4.870;2022-07-17T13:25:45;7.22;;;3.15;;
51495;SDS011;37572;52.094;4.870;2022-07-17T13:28:11;5.63;;;3.65;;
51495;SDS011;37572;52.094;4.870;2022-07-17T13:30:36;4.53;;;2.85;;
51495;SDS011;37572;52.094;4.870;2022-07-17T13:33:02;2.88;;;2.67;;
51495;SDS011;37572;52.094;4.870;2022-07-17T13:35:28;6.32;;;2.92;;
51495;SDS011;37572;52.094;4.870;2022-07-17T13:37:53;4.40;;;3.17;;
51495;SDS011;37572;52.094;4.870;2022-07-17T13:40:19;4.13;;;3.00;;
51495;SDS011;37572;52.094;4.870;2022-07-17T13:42:45;4.45;;;3.38;;
51495;SDS011;37572;52.094;4.870;2022-07-17T13:45:10;6.18;;;3.42;;
51495;SDS011;37572;52.094;4.870;2022-07-17T13:47:36;3.70;;;3.10;;
51495;SDS011;37572;52.094;4.870;2022-07-17T13:50:01;5.20;;;3.47;;
51495;SDS011;37572;52.094;4.870;2022-07-17T13:52:27;6.13;;;3.38;;
51495;SDS011;37572;52.094;4.870;2022-07-17T13:54:53;6.15;;;3.35;;
51495;SDS011;37572;52.094;4.870;2022-07-17T13:57:18;3.63;;;3.15;;
51495;SDS011;37572;52.094;4.870;2022-07-17T13:59:43;5.63;;;3.20;;
51495;SDS011;37572;52.094;4.870;2022-07-17T14:02:09;7.43;;;3.40;;
51495;SDS011;37572;52.094;4.870;2022-07-17T14:04:34;4.25;;;3.17;;
51495;SDS011;37572;52.094;4.870;2022-07-17T14:07:01;4.65;;;3.35;;
51495;SDS011;37572;52.094;4.870;2022-07-17T14:09:26;6.15;;;3.58;;
51495;SDS011;37572;52.094;4.870;2022-07-17T14:11:52;7.72;;;3.83;;
51495;SDS011;37572;52.094;4.870;2022-07-17T14:14:18;6.15;;;3.90;;
51495;SDS011;37572;52.094;4.870;2022-07-17T14:16:44;7.68;;;4.22;;
51495;SDS011;37572;52.094;4.870;2022-07-17T14:19:09;7.15;;;3.88;;
51495;SDS011;37572;52.094;4.870;2022-07-17T14:21:36;5.70;;;3.20;;
51495;SDS011;37572;52.094;4.870;2022-07-17T14:24:02;18.67;;;3.55;;
51495;SDS011;37572;52.094;4.870;2022-07-17T14:26:29;5.85;;;4.22;;
51495;SDS011;37572;52.094;4.870;2022-07-17T14:28:54;5.93;;;3.58;;
51495;SDS011;37572;52.094;4.870;2022-07-17T14:31:20;5.50;;;3.75;;
51495;SDS011;37572;52.094;4.870;2022-07-17T14:33:46;7.97;;;4.00;;
51495;SDS011;37572;52.094;4.870;2022-07-17T14:36:12;8.43;;;4.10;;
51495;SDS011;37572;52.094;4.870;2022-07-17T14:38:37;6.57;;;4.32;;
51495;SDS011;37572;52.094;4.870;2022-07-17T14:41:02;4.80;;;3.80;;
51495;SDS011;37572;52.094;4.870;2022-07-17T14:43:28;7.47;;;3.80;;
51495;SDS011;37572;52.094;4.870;2022-07-17T14:45:53;7.55;;;4.20;;
51495;SDS011;37572;52.094;4.870;2022-07-17T14:48:19;9.90;;;4.75;;
51495;SDS011;37572;52.094;4.870;2022-07-17T14:50:45;5.65;;;4.07;;